Time;durP1;ratioP1;P1;durP2;ratioP2;P2;SDS_P1;SDS_P2;PMS_P1;PMS_P2;Temp;Humidity;BMP_temperature;BMP_pressure;BME280_temperature;BME280_humidity;BME280_pressure;Samples;Min_cycle;Max_cycle;Signal;HPM_P1;HPM_P2
2022/07/07 00:00:50;;;;;;;345.10;269.30;;;23.70;79.60;;;;;;4789255;30;20437;-76
2022/07/07 00:03:17;;;;;;;4.45;2.90;;;23.90;79.10;;;;;;4789653;30;20054;-82
2022/07/07 00:05:45;;;;;;;342.80;241.55;;;24.00;79.50;;;;;;4789422;30;20074;-85
2022/07/07 00:08:12;;;;;;;310.67;173.20;;;24.00;78.80;;;;;;4789321;30;20054;-80
2022/07/07 00:10:39;;;;;;;316.38;194.32;;;23.90;79.50;;;;;;4774083;30;20067;-80
2022/07/07 00:13:07;;;;;;;328.00;228.85;;;24.00;79.30;;;;;;4789484;29;20069;-83
2022/07/07 00:15:34;;;;;;;313.05;180.85;;;23.80;80.30;;;;;;4789979;30;20048;-87
2022/07/07 00:18:01;;;;;;;320.00;208.45;;;24.20;79.60;;;;;;4789787;30;20055;-87
2022/07/07 00:20:29;;;;;;;333.02;196.00;;;23.90;80.10;;;;;;4790340;30;20058;-88
2022/07/07 00:22:56;;;;;;;;;;;23.70;80.80;;;;;;4790372;30;20050;-92
2022/07/07 00:25:23;;;;;;;731.20;677.50;;;23.60;81.30;;;;;;4790607;30;20287;-88
2022/07/07 00:27:51;;;;;;;;;;;23.60;81.20;;;;;;4790140;30;20055;-84
2022/07/07 00:30:18;;;;;;;;;;;23.60;81.80;;;;;;4788994;30;20095;-90
2022/07/07 00:32:46;;;;;;;500.50;454.60;;;23.50;82.00;;;;;;4790148;30;19952;-91
2022/07/07 00:35:13;;;;;;;;;;;23.60;82.30;;;;;;4789164;30;20377;-84
2022/07/07 00:37:40;;;;;;;590.93;542.97;;;23.60;82.20;;;;;;4789591;30;19933;-91
2022/07/07 00:40:08;;;;;;;;;;;23.70;82.40;;;;;;4788175;30;20050;-76
2022/07/07 00:42:35;;;;;;;;;;;23.40;82.90;;;;;;4788646;30;24321;-76
2022/07/07 00:45:03;;;;;;;;;;;23.30;83.80;;;;;;4787870;29;19925;-78
2022/07/07 00:47:31;;;;;;;262.25;237.43;;;23.40;83.90;;;;;;4788757;30;24095;-78
2022/07/07 00:49:59;;;;;;;5.57;2.88;;;23.20;84.20;;;;;;4788529;30;20101;-81
2022/07/07 00:52:26;;;;;;;4.68;2.83;;;23.20;84.80;;;;;;4788324;30;20051;-88
2022/07/07 00:55:02;;;;;;;400.15;365.58;;;23.30;84.40;;;;;;4788669;30;20055;-91
2022/07/07 00:57:30;;;;;;;330.75;304.30;;;23.20;84.50;;;;;;4789041;30;20043;-78
2022/07/07 00:59:59;;;;;;;132.00;118.38;;;23.20;85.00;;;;;;4788935;30;20052;-77
2022/07/07 01:02:29;;;;;;;380.38;343.75;;;23.20;85.20;;;;;;4788685;30;20047;-78
2022/07/07 01:04:59;;;;;;;472.80;428.88;;;23.20;85.50;;;;;;4788991;30;20043;-82
2022/07/07 01:07:27;;;;;;;548.35;499.90;;;23.10;86.10;;;;;;4789124;30;20050;-78
2022/07/07 01:09:57;;;;;;;591.63;543.50;;;23.20;86.00;;;;;;4773523;30;20064;-92
2022/07/07 01:12:24;;;;;;;444.23;407.48;;;23.30;85.60;;;;;;4789334;30;20147;-78
2022/07/07 01:14:52;;;;;;;535.53;489.38;;;23.30;85.70;;;;;;4788847;30;20047;-78
2022/07/07 01:17:19;;;;;;;589.97;541.20;;;23.20;86.00;;;;;;4788328;30;20102;-79
2022/07/07 01:19:47;;;;;;;720.20;666.00;;;23.20;86.00;;;;;;4772670;30;20053;-79
2022/07/07 01:22:17;;;;;;;717.15;661.75;;;23.20;86.30;;;;;;4790469;30;20070;-83
2022/07/07 01:24:44;;;;;;;550.80;504.40;;;23.20;86.70;;;;;;4788158;30;20442;-83
2022/07/07 01:27:11;;;;;;;535.20;489.90;;;23.30;86.60;;;;;;4788221;30;20047;-81
2022/07/07 01:29:44;;;;;;;607.80;558.70;;;23.00;87.50;;;;;;4788498;30;20051;-76
2022/07/07 01:32:11;;;;;;;;;;;23.00;87.50;;;;;;4788111;30;20450;-93
2022/07/07 01:34:40;;;;;;;;;;;23.00;87.70;;;;;;4788684;30;19925;-81
2022/07/07 01:37:08;;;;;;;;;;;23.00;88.10;;;;;;4788709;30;19926;-79
2022/07/07 01:39:36;;;;;;;;;;;22.90;88.70;;;;;;4787970;30;19929;-79
2022/07/07 01:42:04;;;;;;;;;;;22.80;89.10;;;;;;4771752;30;20386;-76
2022/07/07 01:44:31;;;;;;;;;;;22.90;89.30;;;;;;4787823;30;20289;-84
2022/07/07 01:46:59;;;;;;;;;;;22.60;90.00;;;;;;4788079;30;19926;-76
2022/07/07 01:49:29;;;;;;;8.70;2.90;;;22.80;90.10;;;;;;4788467;30;19925;-77
2022/07/07 01:51:57;;;;;;;4.33;2.93;;;22.70;90.10;;;;;;4788147;30;20538;-76
2022/07/07 01:54:25;;;;;;;96.20;87.00;;;22.60;90.40;;;;;;4787503;30;20291;-83
2022/07/07 01:56:53;;;;;;;6.40;3.20;;;22.60;90.60;;;;;;4787049;30;19974;-78
2022/07/07 01:59:21;;;;;;;5.00;3.28;;;22.60;90.70;;;;;;4772097;30;20085;-87
2022/07/07 02:01:48;;;;;;;4.60;2.97;;;22.60;90.80;;;;;;4788153;30;20417;-83
2022/07/07 02:04:15;;;;;;;4.32;2.92;;;22.60;91.00;;;;;;4787970;30;20470;-79
2022/07/07 02:06:43;;;;;;;5.43;3.25;;;22.50;91.10;;;;;;4787987;30;20122;-86
2022/07/07 02:09:11;;;;;;;4.80;3.00;;;22.60;91.20;;;;;;4772137;30;20063;-79
2022/07/07 02:11:38;;;;;;;4.70;3.17;;;22.60;91.20;;;;;;4771266;30;20051;-81
2022/07/07 02:14:06;;;;;;;4.93;2.85;;;22.60;91.50;;;;;;4785750;30;20043;-81
2022/07/07 02:16:34;;;;;;;4.07;2.80;;;22.60;91.50;;;;;;4786438;30;20047;-81
2022/07/07 02:19:04;;;;;;;5.20;3.10;;;22.50;91.80;;;;;;4786513;30;20043;-78
2022/07/07 02:21:31;;;;;;;6.68;2.88;;;22.40;92.10;;;;;;4786912;29;20063;-81
2022/07/07 02:23:59;;;;;;;8.05;3.42;;;22.40;92.20;;;;;;4787522;30;20055;-87
2022/07/07 02:26:27;;;;;;;4.60;3.15;;;22.40;92.30;;;;;;4787188;30;20436;-86
2022/07/07 02:28:54;;;;;;;5.18;3.10;;;22.40;92.60;;;;;;4787283;30;20051;-75
2022/07/07 02:31:21;;;;;;;9.98;3.58;;;22.40;92.60;;;;;;4786726;30;20408;-86
2022/07/07 02:33:49;;;;;;;6.60;4.63;;;22.50;92.70;;;;;;4788252;30;20650;-84
2022/07/07 02:36:16;;;;;;;7.75;3.05;;;22.30;93.10;;;;;;4787196;30;20043;-86
2022/07/07 02:38:45;;;;;;;6.63;3.53;;;22.30;93.20;;;;;;4786155;30;20055;-78
2022/07/07 02:41:12;;;;;;;5.93;3.50;;;22.80;92.80;;;;;;4786631;30;20055;-76
2022/07/07 02:43:39;;;;;;;6.35;3.65;;;22.70;92.70;;;;;;4786585;30;20047;-76
2022/07/07 02:46:07;;;;;;;5.07;3.35;;;22.30;93.50;;;;;;4786369;30;20401;-84
2022/07/07 02:48:34;;;;;;;;;;;22.20;94.00;;;;;;4786505;30;20071;-75
2022/07/07 02:51:02;;;;;;;4.90;3.10;;;22.00;94.20;;;;;;4786789;30;19925;-87
2022/07/07 02:53:29;;;;;;;5.35;3.22;;;22.00;94.60;;;;;;4787518;30;20096;-91
2022/07/07 02:55:57;;;;;;;5.07;3.25;;;22.10;94.90;;;;;;4788172;30;20047;-83
2022/07/07 02:58:24;;;;;;;6.15;3.60;;;22.00;95.10;;;;;;4787218;30;20099;-81
2022/07/07 03:00:54;;;;;;;8.20;3.60;;;22.00;95.40;;;;;;4770896;30;20051;-84
2022/07/07 03:03:22;;;;;;;5.85;3.40;;;22.20;95.40;;;;;;4786510;30;20082;-83
2022/07/07 03:05:49;;;;;;;6.55;3.33;;;22.60;94.80;;;;;;4784456;30;20071;-85
2022/07/07 03:08:17;;;;;;;5.10;3.58;;;22.70;94.50;;;;;;4768993;30;20075;-86
2022/07/07 03:10:45;;;;;;;5.50;3.40;;;22.70;94.80;;;;;;4772229;30;20094;-80
2022/07/07 03:13:13;;;;;;;7.03;3.55;;;22.70;94.80;;;;;;4771907;30;20103;-85
2022/07/07 03:15:40;;;;;;;6.85;3.85;;;22.30;95.50;;;;;;4771977;30;20476;-78
2022/07/07 03:18:09;;;;;;;5.38;3.33;;;22.00;96.90;;;;;;4772651;30;20054;-88
2022/07/07 03:20:37;;;;;;;5.95;3.63;;;22.30;96.20;;;;;;4758146;30;20500;-79
2022/07/07 03:23:05;;;;;;;7.25;3.67;;;21.90;96.70;;;;;;4792154;30;20509;-92
2022/07/07 03:25:34;;;;;;;6.65;3.58;;;21.60;97.70;;;;;;4789584;30;20100;-78
2022/07/07 03:28:01;;;;;;;6.47;3.95;;;21.40;98.60;;;;;;4789446;30;20453;-84
2022/07/07 03:30:29;;;;;;;7.75;3.97;;;21.40;99.20;;;;;;4789247;30;20039;-83
2022/07/07 03:32:57;;;;;;;6.10;3.75;;;21.50;99.60;;;;;;4790271;30;20071;-85
2022/07/07 03:35:24;;;;;;;6.60;3.85;;;21.50;99.90;;;;;;4792131;30;20100;-87
2022/07/07 03:37:52;;;;;;;7.60;4.00;;;21.40;99.90;;;;;;4793743;30;20446;-92
2022/07/07 03:40:19;;;;;;;5.40;3.20;;;21.40;99.90;;;;;;4795683;30;20538;-76
2022/07/07 03:42:47;;;;;;;5.80;3.45;;;21.40;99.90;;;;;;4791606;30;20082;-93
2022/07/07 03:45:15;;;;;;;8.00;3.47;;;21.40;99.90;;;;;;4790771;30;20067;-79
2022/07/07 03:47:42;;;;;;;7.45;3.28;;;21.60;99.90;;;;;;4790520;30;20083;-89
2022/07/07 03:50:10;;;;;;;5.85;2.97;;;21.60;99.90;;;;;;4790904;30;20123;-83
2022/07/07 03:52:37;;;;;;;7.75;3.90;;;21.40;99.90;;;;;;4790981;30;20047;-81
2022/07/07 03:55:05;;;;;;;7.47;3.20;;;21.60;99.90;;;;;;4774721;30;20504;-81
2022/07/07 03:57:33;;;;;;;5.20;3.40;;;21.50;99.90;;;;;;4789947;30;20126;-76
2022/07/07 04:00:03;;;;;;;5.35;2.90;;;21.50;99.90;;;;;;4790156;30;20085;-86
2022/07/07 04:02:31;;;;;;;5.35;3.10;;;21.40;99.90;;;;;;4789795;30;20143;-80
2022/07/07 04:04:59;;;;;;;5.13;3.60;;;21.30;99.90;;;;;;4789453;30;20378;-87
2022/07/07 04:07:28;;;;;;;6.75;3.20;;;21.50;99.90;;;;;;4789829;30;20126;-80
2022/07/07 04:09:57;;;;;;;6.10;3.20;;;21.60;99.90;;;;;;4789679;30;20044;-79
2022/07/07 04:12:24;;;;;;;9.65;3.35;;;21.60;99.90;;;;;;4789029;30;20081;-75
2022/07/07 04:14:51;;;;;;;5.65;3.70;;;21.80;99.90;;;;;;4789478;30;20137;-85
2022/07/07 04:17:19;;;;;;;5.75;3.85;;;21.80;99.90;;;;;;4789334;30;20048;-82
2022/07/07 04:19:46;;;;;;;10.27;4.57;;;21.70;99.90;;;;;;4787563;29;20067;-80
2022/07/07 04:22:14;;;;;;;8.23;5.03;;;21.90;99.90;;;;;;4788893;29;20094;-79
2022/07/07 04:24:41;;;;;;;5.18;3.03;;;21.90;99.90;;;;;;4788691;30;20150;-89
2022/07/07 04:27:09;;;;;;;11.00;6.68;;;21.70;99.90;;;;;;4793730;29;20083;-83
2022/07/07 04:29:36;;;;;;;10.52;6.38;;;21.90;99.90;;;;;;4789092;30;20059;-80
2022/07/07 04:32:04;;;;;;;9.13;5.05;;;22.00;99.90;;;;;;4772956;30;20078;-80
2022/07/07 04:34:32;;;;;;;180.20;164.65;;;22.10;99.90;;;;;;4788301;30;20063;-83
2022/07/07 04:36:59;;;;;;;;;;;22.00;99.90;;;;;;4789289;30;20315;-77
2022/07/07 04:39:27;;;;;;;630.20;577.00;;;22.10;99.90;;;;;;4788492;30;20047;-83
2022/07/07 04:41:54;;;;;;;675.80;622.75;;;22.30;99.90;;;;;;4788641;30;20079;-83
2022/07/07 04:44:21;;;;;;;;;;;22.10;99.90;;;;;;4788663;30;20071;-77
2022/07/07 04:46:49;;;;;;;;;;;22.10;99.90;;;;;;4788631;30;20100;-82
2022/07/07 04:49:17;;;;;;;6.32;3.50;;;22.10;99.90;;;;;;4788234;30;19941;-77
2022/07/07 04:51:50;;;;;;;9.82;3.45;;;22.20;99.90;;;;;;4787052;30;20058;-76
2022/07/07 04:54:17;;;;;;;5.05;3.35;;;22.30;99.90;;;;;;4788115;30;20065;-77
2022/07/07 04:56:44;;;;;;;;;;;22.40;99.90;;;;;;4788231;30;20055;-80
2022/07/07 04:59:12;;;;;;;;;;;22.50;99.90;;;;;;4788798;30;19932;-89
2022/07/07 05:01:39;;;;;;;6.07;2.88;;;22.70;99.90;;;;;;4786691;30;20030;-82
2022/07/07 05:04:06;;;;;;;;;;;22.60;99.90;;;;;;4788198;30;20051;-84
2022/07/07 05:06:34;;;;;;;;;;;22.60;99.90;;;;;;4787361;30;19925;-79
2022/07/07 05:09:01;;;;;;;;;;;22.80;99.90;;;;;;4787971;30;19950;-76
2022/07/07 05:11:31;;;;;;;;;;;22.90;99.90;;;;;;4788058;30;20340;-81
2022/07/07 05:13:58;;;;;;;;;;;23.00;99.70;;;;;;4787095;30;19932;-86
2022/07/07 05:16:26;;;;;;;;;;;23.20;99.80;;;;;;4787598;30;19926;-84
2022/07/07 05:18:53;;;;;;;;;;;23.30;98.80;;;;;;4787193;30;20067;-77
2022/07/07 05:21:20;;;;;;;593.00;543.00;;;23.50;98.80;;;;;;4787377;30;20066;-76
2022/07/07 05:23:47;;;;;;;;;;;23.30;99.70;;;;;;4788103;30;20070;-84
2022/07/07 05:26:15;;;;;;;;;;;23.20;98.90;;;;;;4787407;30;19933;-76
2022/07/07 05:28:42;;;;;;;693.35;641.60;;;23.20;99.10;;;;;;4787122;30;19925;-76
2022/07/07 05:31:12;;;;;;;207.10;187.77;;;23.50;98.60;;;;;;4786675;30;20493;-76
2022/07/07 05:33:40;;;;;;;560.43;519.27;;;23.30;98.90;;;;;;4787173;30;20492;-77
2022/07/07 05:36:08;;;;;;;263.27;242.60;;;23.40;98.80;;;;;;4787220;30;20043;-78
2022/07/07 05:38:36;;;;;;;184.35;169.65;;;23.30;98.90;;;;;;4786957;30;20047;-76
2022/07/07 05:41:03;;;;;;;526.40;488.08;;;23.30;99.00;;;;;;4785504;30;20047;-77
2022/07/07 05:43:31;;;;;;;287.20;265.35;;;23.40;98.90;;;;;;4785387;30;20040;-80
2022/07/07 05:45:58;;;;;;;8.13;3.83;;;23.30;98.60;;;;;;4785143;30;20051;-78
2022/07/07 05:48:26;;;;;;;8.68;4.43;;;23.30;99.60;;;;;;4768765;30;20096;-78
2022/07/07 05:50:54;;;;;;;9.98;3.80;;;23.30;99.50;;;;;;4785469;30;20054;-78
2022/07/07 05:53:21;;;;;;;8.00;3.85;;;23.70;98.80;;;;;;4785194;30;20062;-79
2022/07/07 05:55:49;;;;;;;11.77;4.80;;;23.80;98.90;;;;;;4784822;30;20122;-83
2022/07/07 05:58:17;;;;;;;19.23;9.75;;;23.70;99.00;;;;;;4787013;30;20522;-84
2022/07/07 06:00:44;;;;;;;26.67;16.00;;;23.80;99.10;;;;;;4786716;30;20059;-85
2022/07/07 06:03:12;;;;;;;12.57;6.85;;;23.90;98.60;;;;;;4785532;30;20047;-76
2022/07/07 06:05:40;;;;;;;8.75;4.93;;;24.10;98.30;;;;;;4785996;30;20043;-84
2022/07/07 06:08:08;;;;;;;6.15;3.50;;;23.90;98.00;;;;;;4787648;30;20047;-76
2022/07/07 06:10:36;;;;;;;5.95;3.63;;;23.70;98.50;;;;;;4786849;30;20054;-79
2022/07/07 06:13:04;;;;;;;7.93;4.57;;;23.60;98.80;;;;;;4787073;30;20056;-78
2022/07/07 06:15:33;;;;;;;10.10;3.70;;;23.70;98.80;;;;;;4785478;30;20052;-81
2022/07/07 06:18:01;;;;;;;5.30;3.53;;;23.60;99.00;;;;;;4786647;30;20047;-76
2022/07/07 06:20:37;;;;;;;6.82;3.80;;;23.60;99.10;;;;;;4786597;29;20044;-79
2022/07/07 06:23:05;;;;;;;6.55;3.17;;;23.70;98.60;;;;;;4770165;30;20424;-79
2022/07/07 06:25:32;;;;;;;7.43;5.07;;;23.70;98.40;;;;;;4786521;30;20416;-75
2022/07/07 06:28:00;;;;;;;11.40;4.35;;;24.00;98.60;;;;;;4786762;30;20051;-82
2022/07/07 06:30:27;;;;;;;5.22;3.47;;;24.30;98.40;;;;;;4786373;30;20044;-81
2022/07/07 06:32:55;;;;;;;6.05;3.55;;;24.10;97.60;;;;;;4786509;30;20432;-80
2022/07/07 06:35:24;;;;;;;10.48;4.32;;;24.00;97.90;;;;;;4786232;30;20048;-79
2022/07/07 06:37:53;;;;;;;10.18;3.88;;;24.20;98.00;;;;;;4786839;30;20047;-80
2022/07/07 06:40:21;;;;;;;8.30;4.13;;;24.20;97.50;;;;;;4770854;30;20134;-78
2022/07/07 06:42:49;;;;;;;7.60;3.45;;;24.20;97.40;;;;;;4786263;29;20055;-79
2022/07/07 06:45:16;;;;;;;416.98;375.27;;;24.10;97.40;;;;;;4789876;30;20500;-82
2022/07/07 06:47:44;;;;;;;116.18;107.80;;;24.00;97.30;;;;;;4789703;30;20051;-80
2022/07/07 06:50:11;;;;;;;141.35;120.50;;;24.00;97.60;;;;;;4790077;30;20035;-77
2022/07/07 06:52:39;;;;;;;254.65;233.00;;;24.00;97.40;;;;;;4789767;30;20051;-81
2022/07/07 06:55:06;;;;;;;191.57;176.38;;;24.10;97.60;;;;;;4788889;30;20054;-81
2022/07/07 06:57:38;;;;;;;178.82;164.05;;;24.40;96.30;;;;;;4789790;30;20051;-76
2022/07/07 07:00:07;;;;;;;74.68;54.67;;;24.10;96.00;;;;;;4789577;30;20108;-77
2022/07/07 07:02:44;;;;;;;6.43;3.80;;;24.30;96.50;;;;;;4789361;30;20044;-76
2022/07/07 07:05:12;;;;;;;7.28;3.65;;;24.40;95.90;;;;;;4788906;30;20500;-77
2022/07/07 07:07:40;;;;;;;6.70;3.10;;;24.20;95.80;;;;;;4780284;30;20101;-77
2022/07/07 07:10:08;;;;;;;5.60;3.25;;;24.40;95.90;;;;;;4771585;30;20055;-77
2022/07/07 07:12:35;;;;;;;7.45;2.95;;;24.40;95.20;;;;;;4770855;30;20051;-76
2022/07/07 07:15:03;;;;;;;7.47;3.83;;;24.30;95.50;;;;;;4771852;30;20108;-77
2022/07/07 07:17:31;;;;;;;6.72;3.35;;;24.40;95.40;;;;;;4771658;30;20043;-78
2022/07/07 07:19:58;;;;;;;5.75;3.22;;;24.50;95.20;;;;;;4771889;30;20106;-77
2022/07/07 07:22:26;;;;;;;10.00;3.55;;;24.50;94.80;;;;;;4785863;30;20066;-79
2022/07/07 07:24:54;;;;;;;8.30;4.38;;;24.60;94.90;;;;;;4789297;30;20500;-77
2022/07/07 07:27:21;;;;;;;6.75;3.55;;;24.60;94.80;;;;;;4788978;30;20115;-78
2022/07/07 07:29:49;;;;;;;8.57;4.82;;;24.70;94.80;;;;;;4789409;30;20131;-80
2022/07/07 07:32:16;;;;;;;7.85;4.57;;;24.80;93.90;;;;;;4788912;30;20054;-80
2022/07/07 07:34:43;;;;;;;6.95;3.47;;;24.60;94.10;;;;;;4789389;30;20067;-79
2022/07/07 07:37:11;;;;;;;7.55;3.63;;;24.70;93.90;;;;;;4789377;30;20100;-79
2022/07/07 07:39:38;;;;;;;6.07;3.25;;;24.80;93.80;;;;;;4787751;30;20058;-80
2022/07/07 07:42:06;;;;;;;5.82;3.42;;;24.80;93.50;;;;;;4788833;30;20047;-78
2022/07/07 07:47:19;;;;;;;6.65;3.40;;;25.00;92.90;;;;;;4788826;30;20058;-79
2022/07/07 07:49:46;;;;;;;6.60;3.40;;;24.90;92.70;;;;;;4788981;30;20054;-78
2022/07/07 07:52:14;;;;;;;6.35;3.70;;;24.90;91.40;;;;;;4788817;30;20047;-80
2022/07/07 07:54:41;;;;;;;6.78;3.47;;;25.00;91.20;;;;;;4788529;29;20043;-80
2022/07/07 07:57:09;;;;;;;5.25;3.20;;;25.10;91.10;;;;;;4788463;30;20057;-80
2022/07/07 07:59:36;;;;;;;5.13;3.15;;;25.30;90.30;;;;;;4788747;30;20047;-78
2022/07/07 08:02:04;;;;;;;4.72;3.10;;;25.10;90.10;;;;;;4788578;30;20053;-79
2022/07/07 08:04:31;;;;;;;6.80;3.58;;;25.10;90.10;;;;;;4788901;30;20393;-80
2022/07/07 08:06:59;;;;;;;6.25;3.13;;;25.10;89.80;;;;;;4788842;30;20051;-79
2022/07/07 08:09:27;;;;;;;8.00;3.85;;;25.00;89.30;;;;;;4788873;30;20048;-80
2022/07/07 08:11:54;;;;;;;6.70;3.50;;;25.20;89.60;;;;;;4788354;30;20424;-79
2022/07/07 08:14:21;;;;;;;6.53;3.45;;;25.40;88.40;;;;;;4788690;30;20512;-79
2022/07/07 08:16:49;;;;;;;9.13;3.15;;;25.40;86.70;;;;;;4787833;30;20108;-81
2022/07/07 08:19:19;;;;;;;5.13;3.35;;;25.30;85.60;;;;;;4787398;30;20043;-80
2022/07/07 08:21:47;;;;;;;5.25;3.00;;;25.40;86.20;;;;;;4788211;30;20098;-79
2022/07/07 08:24:14;;;;;;;5.47;3.38;;;25.60;86.60;;;;;;4787996;30;20503;-80
2022/07/07 08:26:42;;;;;;;8.43;3.60;;;25.60;85.30;;;;;;4787868;30;20047;-78
2022/07/07 08:29:10;;;;;;;5.93;3.08;;;25.70;83.10;;;;;;4788168;30;20062;-79
2022/07/07 08:31:37;;;;;;;5.15;2.80;;;25.80;83.60;;;;;;4787861;30;20089;-78
2022/07/07 08:34:05;;;;;;;4.07;2.63;;;25.90;82.90;;;;;;4788068;30;20054;-78
2022/07/07 08:36:32;;;;;;;7.43;3.35;;;25.80;82.10;;;;;;4788067;30;20051;-80
2022/07/07 08:39:00;;;;;;;6.47;2.90;;;25.80;81.90;;;;;;4787658;30;20047;-78
2022/07/07 08:41:28;;;;;;;5.93;3.13;;;25.70;81.30;;;;;;4787967;30;20047;-79
2022/07/07 08:43:56;;;;;;;7.03;4.45;;;25.70;83.10;;;;;;4772299;30;20055;-79
2022/07/07 08:46:23;;;;;;;6.32;3.40;;;25.60;82.10;;;;;;4787992;30;20058;-77
2022/07/07 08:48:53;;;;;;;8.77;5.25;;;25.70;79.40;;;;;;4771438;30;20146;-80
2022/07/07 08:51:21;;;;;;;9.93;4.63;;;25.70;80.00;;;;;;4787982;30;20048;-78
2022/07/07 08:53:49;;;;;;;6.65;4.15;;;25.60;81.70;;;;;;4771585;30;20051;-79
2022/07/07 08:56:19;;;;;;;6.18;4.20;;;25.60;82.60;;;;;;4787684;30;20055;-79
2022/07/07 08:58:46;;;;;;;;;;;25.60;83.60;;;;;;4787700;30;20162;-80
2022/07/07 09:01:31;;;;;;;5.28;3.05;;;25.70;82.40;;;;;;4771575;30;20360;-79
2022/07/07 09:04:01;;;;;;;7.10;3.15;;;25.70;79.40;;;;;;4786316;30;20055;-79
2022/07/07 09:06:30;;;;;;;6.70;3.20;;;25.70;77.80;;;;;;4787028;29;20040;-80
2022/07/07 09:08:58;;;;;;;8.88;3.42;;;25.80;79.20;;;;;;4771817;30;20066;-79
2022/07/07 09:11:27;;;;;;;5.78;3.30;;;25.90;80.00;;;;;;4769508;30;20043;-79
2022/07/07 09:14:11;;;;;;;4.60;2.72;;;26.10;79.30;;;;;;4769591;30;20062;-79
2022/07/07 09:16:38;;;;;;;6.80;3.30;;;26.30;78.80;;;;;;4767882;30;20059;-79
2022/07/07 09:19:16;;;;;;;7.28;3.10;;;26.50;77.90;;;;;;4769505;30;20126;-79
2022/07/07 09:21:43;;;;;;;10.48;3.50;;;26.70;78.90;;;;;;4778486;29;20051;-79
2022/07/07 09:24:11;;;;;;;6.03;3.20;;;26.70;78.30;;;;;;4786944;30;20051;-79
2022/07/07 09:26:47;;;;;;;6.82;3.17;;;26.70;77.40;;;;;;4787126;30;20523;-77
2022/07/07 09:29:18;;;;;;;5.05;2.60;;;26.40;74.00;;;;;;4787245;30;20054;-80
2022/07/07 09:31:54;;;;;;;6.03;2.83;;;26.30;73.10;;;;;;4787208;30;20122;-79
2022/07/07 09:34:24;;;;;;;5.65;2.70;;;26.20;72.10;;;;;;4787534;30;20108;-79
2022/07/07 09:39:46;;;;;;;5.75;3.55;;;26.60;71.20;;;;;;4786939;30;19926;-79
2022/07/07 09:42:33;;;;;;;8.15;4.22;;;26.60;71.50;;;;;;4786674;30;20043;-79
2022/07/07 09:45:07;;;;;;;8.90;4.75;;;26.50;72.60;;;;;;4786994;30;20459;-79
2022/07/07 09:47:35;;;;;;;4.68;2.90;;;26.70;71.60;;;;;;4786778;30;20054;-79
2022/07/07 09:50:08;;;;;;;5.43;3.15;;;26.90;71.50;;;;;;4771021;30;20486;-79
2022/07/07 09:52:38;;;;;;;8.40;2.72;;;27.00;72.90;;;;;;4785389;30;20548;-80
2022/07/07 09:55:11;;;;;;;6.05;2.88;;;27.00;71.40;;;;;;4756722;30;20073;-79
2022/07/07 09:57:40;;;;;;;8.68;2.88;;;26.90;71.70;;;;;;4786848;30;20058;-80
2022/07/07 10:00:08;;;;;;;5.90;3.15;;;26.90;71.50;;;;;;4787082;30;20054;-79
2022/07/07 10:02:37;;;;;;;5.90;2.88;;;26.90;71.70;;;;;;4786594;30;20039;-78
2022/07/07 10:05:05;;;;;;;7.18;3.53;;;27.00;72.70;;;;;;4786555;30;20047;-78
2022/07/07 10:07:34;;;;;;;8.82;4.90;;;26.90;74.10;;;;;;4787007;30;20618;-80
2022/07/07 10:10:07;;;;;;;8.77;5.80;;;27.00;75.40;;;;;;4771009;30;20420;-79
2022/07/07 10:12:43;;;;;;;11.30;4.53;;;27.40;74.20;;;;;;4786552;30;20047;-79
2022/07/07 10:15:11;;;;;;;6.20;3.78;;;27.70;75.20;;;;;;4786562;29;20043;-79
2022/07/07 10:17:41;;;;;;;6.88;3.45;;;27.90;73.40;;;;;;4787984;29;20061;-79
2022/07/07 10:20:11;;;;;;;6.88;3.72;;;27.80;72.40;;;;;;4790524;30;20431;-79
2022/07/07 10:22:39;;;;;;;4.87;3.27;;;27.40;73.00;;;;;;4789976;30;20067;-78
2022/07/07 10:25:08;;;;;;;6.47;4.13;;;27.10;73.30;;;;;;4790112;30;20054;-78
2022/07/07 10:27:39;;;;;;;8.27;4.03;;;27.00;73.90;;;;;;4790407;30;20446;-79
2022/07/07 10:30:07;;;;;;;8.10;4.10;;;27.30;74.00;;;;;;4790520;30;20050;-79
2022/07/07 10:32:51;;;;;;;5.57;3.45;;;27.60;73.60;;;;;;4773893;30;20043;-79
2022/07/07 10:35:19;;;;;;;5.65;3.60;;;27.70;73.10;;;;;;4790126;30;20062;-79
2022/07/07 10:37:52;;;;;;;5.65;3.72;;;27.80;73.20;;;;;;4790019;30;20047;-79
2022/07/07 10:40:22;;;;;;;10.55;3.67;;;27.80;72.50;;;;;;4790361;30;20055;-78
2022/07/07 10:43:08;;;;;;;;;;;27.90;72.50;;;;;;4790000;30;20050;-78
2022/07/07 10:45:41;;;;;;;5.45;3.60;;;28.10;72.50;;;;;;4790139;30;19965;-78
2022/07/07 10:48:09;;;;;;;5.70;3.80;;;28.20;71.80;;;;;;4789858;30;20055;-79
2022/07/07 10:50:36;;;;;;;7.97;3.63;;;28.10;71.60;;;;;;4789916;30;20055;-78
2022/07/07 10:53:31;;;;;;;5.85;3.53;;;28.00;72.00;;;;;;4773753;30;20063;-78
2022/07/07 10:55:59;;;;;;;6.25;3.80;;;27.90;71.70;;;;;;4789953;30;20043;-78
2022/07/07 10:58:44;;;;;;;9.10;3.65;;;27.50;71.50;;;;;;4789752;30;20052;-78
2022/07/07 11:01:11;;;;;;;8.25;3.00;;;27.50;69.80;;;;;;4788462;30;20062;-78
2022/07/07 11:03:39;;;;;;;6.80;2.92;;;27.70;69.20;;;;;;4789788;30;20479;-78
2022/07/07 11:06:06;;;;;;;5.47;2.80;;;28.10;69.50;;;;;;4789542;29;20040;-78
2022/07/07 11:08:38;;;;;;;4.95;2.90;;;28.60;68.00;;;;;;4780133;30;20059;-79
2022/07/07 11:11:06;;;;;;;6.22;3.38;;;28.90;68.40;;;;;;4771719;30;20056;-78
2022/07/07 11:13:39;;;;;;;5.90;3.13;;;28.70;68.10;;;;;;4771465;30;20047;-80
2022/07/07 11:16:14;;;;;;;6.65;3.25;;;28.30;67.90;;;;;;4771556;30;20055;-79
2022/07/07 11:19:04;;;;;;;7.85;2.60;;;27.90;69.10;;;;;;4771010;30;20052;-78
2022/07/07 11:21:43;;;;;;;6.93;3.20;;;27.70;70.20;;;;;;4779118;30;20446;-79
2022/07/07 11:24:23;;;;;;;6.75;3.60;;;27.70;71.20;;;;;;4789038;30;20050;-79
2022/07/07 11:27:03;;;;;;;5.17;2.80;;;27.70;73.40;;;;;;4789171;30;20050;-79
2022/07/07 11:29:32;;;;;;;5.00;3.20;;;27.60;71.80;;;;;;4788569;29;20051;-80
2022/07/07 11:32:08;;;;;;;6.35;3.00;;;27.60;71.00;;;;;;4789123;30;20039;-79
2022/07/07 11:34:43;;;;;;;5.25;2.70;;;27.80;71.20;;;;;;4788967;30;20126;-79
2022/07/07 11:37:39;;;;;;;4.93;2.90;;;28.60;71.00;;;;;;4789298;30;20052;-79
2022/07/07 11:40:23;;;;;;;4.60;2.58;;;28.90;67.80;;;;;;4786929;30;20055;-79
2022/07/07 11:42:51;;;;;;;6.90;2.60;;;29.10;67.90;;;;;;4789114;30;20068;-79
2022/07/07 11:45:30;;;;;;;5.95;2.60;;;29.30;68.80;;;;;;4789330;30;20132;-79
2022/07/07 11:47:59;;;;;;;4.45;2.40;;;29.20;67.00;;;;;;4788806;30;20081;-78
2022/07/07 11:50:31;;;;;;;5.35;2.30;;;29.10;65.10;;;;;;4788433;30;20070;-79
2022/07/07 11:53:00;;;;;;;2.83;1.83;;;29.10;64.60;;;;;;4789107;30;20090;-79
2022/07/07 11:55:28;;;;;;;3.10;2.00;;;29.20;64.60;;;;;;4788824;30;20043;-80
2022/07/07 11:58:03;;;;;;;5.13;2.15;;;29.30;64.20;;;;;;4788824;30;20310;-79
2022/07/07 12:00:33;;;;;;;4.57;2.53;;;29.30;65.00;;;;;;4788597;30;20097;-79
2022/07/07 12:03:04;;;;;;;3.78;2.25;;;29.70;65.40;;;;;;4788471;30;20078;-79
2022/07/07 12:05:34;;;;;;;4.53;2.22;;;29.80;64.20;;;;;;4788812;30;20047;-79
2022/07/07 12:08:07;;;;;;;4.75;2.40;;;29.80;64.60;;;;;;4788363;30;20050;-78
2022/07/07 12:10:38;;;;;;;4.38;2.53;;;29.80;64.20;;;;;;4788441;30;20108;-79
2022/07/07 12:13:07;;;;;;;4.22;2.03;;;29.50;63.50;;;;;;4772831;30;20063;-79
2022/07/07 12:15:44;;;;;;;10.40;2.50;;;29.10;64.30;;;;;;4788237;30;20055;-79
2022/07/07 12:18:12;;;;;;;4.70;2.95;;;28.90;66.00;;;;;;4788321;30;20048;-80
2022/07/07 12:20:40;;;;;;;5.38;2.90;;;28.70;65.90;;;;;;4788207;29;20496;-79
2022/07/07 12:23:16;;;;;;;6.72;3.42;;;28.50;64.80;;;;;;4788127;30;20040;-79
2022/07/07 12:25:44;;;;;;;4.85;2.63;;;28.60;65.00;;;;;;4788471;30;20535;-79
2022/07/07 12:28:17;;;;;;;7.07;2.70;;;28.50;64.90;;;;;;4788404;30;20067;-79
2022/07/07 12:30:56;;;;;;;7.72;2.55;;;28.50;64.40;;;;;;4788680;30;20112;-78
2022/07/07 12:33:27;;;;;;;6.40;2.10;;;28.50;64.90;;;;;;4772276;30;20062;-80
2022/07/07 12:36:13;;;;;;;4.47;2.33;;;29.00;66.90;;;;;;4788088;30;20079;-79
2022/07/07 12:38:55;;;;;;;5.05;2.30;;;29.50;64.30;;;;;;4788065;30;20051;-79
2022/07/07 12:41:34;;;;;;;4.63;2.45;;;29.70;63.60;;;;;;4787081;30;20528;-78
2022/07/07 12:44:10;;;;;;;5.13;2.15;;;29.80;64.20;;;;;;4788217;30;20416;-79
2022/07/07 12:46:38;;;;;;;3.55;2.10;;;29.70;63.30;;;;;;4787945;30;20109;-79
2022/07/07 12:49:06;;;;;;;4.18;2.22;;;29.90;62.50;;;;;;4788070;30;20039;-80
2022/07/07 12:51:33;;;;;;;4.78;1.73;;;30.00;61.30;;;;;;4787696;30;20077;-80
2022/07/07 12:54:01;;;;;;;4.03;2.10;;;29.80;62.10;;;;;;4788034;30;20047;-79
2022/07/07 12:56:33;;;;;;;3.38;1.75;;;29.40;63.10;;;;;;4787654;30;20425;-79
2022/07/07 12:59:13;;;;;;;3.13;1.73;;;29.80;62.70;;;;;;4771899;30;20062;-79
2022/07/07 13:01:40;;;;;;;3.63;1.70;;;30.00;59.60;;;;;;4787230;30;20050;-79
2022/07/07 13:04:08;;;;;;;3.60;1.92;;;29.80;59.40;;;;;;4787293;30;20418;-79